sensor_id;sensor_type;location;lat;lon;timestamp;pressure;altitude;pressure_sealevel;temperature;humidity
16834;BME280;8533;48.426;10.868;2023-09-19T00:01:14;95794.06;;;15.46;100.00
16834;BME280;8533;48.426;10.868;2023-09-19T00:03:40;95795.53;;;15.33;100.00
16834;BME280;8533;48.426;10.868;2023-09-19T00:06:07;95835.19;;;15.65;100.00
16834;BME280;8533;48.426;10.868;2023-09-19T00:08:34;95761.47;;;15.18;100.00
16834;BME280;8533;48.426;10.868;2023-09-19T00:10:59;95843.84;;;15.71;100.00
16834;BME280;8533;48.426;10.868;2023-09-19T00:13:34;95782.50;;;15.23;100.00
16834;BME280;8533;48.426;10.868;2023-09-19T00:16:01;95848.88;;;15.68;100.00
16834;BME280;8533;48.426;10.868;2023-09-19T00:18:33;95801.81;;;15.37;100.00
16834;BME280;8533;48.426;10.868;2023-09-19T00:21:00;95841.84;;;15.63;100.00
16834;BME280;8533;48.426;10.868;2023-09-19T00:23:26;95849.75;;;15.63;100.00
16834;BME280;8533;48.426;10.868;2023-09-19T00:25:52;95814.91;;;15.42;100.00
16834;BME280;8533;48.426;10.868;2023-09-19T00:28:18;95803.38;;;15.38;100.00
16834;BME280;8533;48.426;10.868;2023-09-19T00:30:45;95853.72;;;15.60;100.00
16834;BME280;8533;48.426;10.868;2023-09-19T00:33:11;95776.13;;;15.05;100.00
16834;BME280;8533;48.426;10.868;2023-09-19T00:35:49;95795.00;;;15.12;100.00
16834;BME280;8533;48.426;10.868;2023-09-19T00:38:15;95867.97;;;15.59;100.00
16834;BME280;8533;48.426;10.868;2023-09-19T00:40:47;95869.56;;;15.60;100.00
16834;BME280;8533;48.426;10.868;2023-09-19T00:43:13;95867.94;;;15.64;100.00
16834;BME280;8533;48.426;10.868;2023-09-19T00:45:42;95623.13;;;14.11;100.00
16834;BME280;8533;48.426;10.868;2023-09-19T00:48:08;95723.50;;;14.76;100.00
16834;BME280;8533;48.426;10.868;2023-09-19T00:50:35;95762.72;;;15.02;100.00
16834;BME280;8533;48.426;10.868;2023-09-19T00:53:01;95709.84;;;14.74;100.00
16834;BME280;8533;48.426;10.868;2023-09-19T00:55:33;95873.91;;;15.70;100.00
16834;BME280;8533;48.426;10.868;2023-09-19T00:58:00;95811.84;;;15.35;100.00
16834;BME280;8533;48.426;10.868;2023-09-19T01:00:26;95865.41;;;15.73;100.00
16834;BME280;8533;48.426;10.868;2023-09-19T01:02:52;95865.22;;;15.70;100.00
16834;BME280;8533;48.426;10.868;2023-09-19T01:05:17;95869.34;;;15.76;100.00
16834;BME280;8533;48.426;10.868;2023-09-19T01:07:43;95867.63;;;15.66;100.00
16834;BME280;8533;48.426;10.868;2023-09-19T01:10:12;95679.81;;;14.51;100.00
16834;BME280;8533;48.426;10.868;2023-09-19T01:29:34;95887.97;;;15.84;100.00
16834;BME280;8533;48.426;10.868;2023-09-19T01:32:05;95788.88;;;15.17;100.00
16834;BME280;8533;48.426;10.868;2023-09-19T01:34:44;95881.97;;;15.79;100.00
16834;BME280;8533;48.426;10.868;2023-09-19T01:37:14;95892.03;;;15.77;100.00
16834;BME280;8533;48.426;10.868;2023-09-19T01:39:44;95894.66;;;15.77;100.00
16834;BME280;8533;48.426;10.868;2023-09-19T01:42:24;95885.25;;;15.71;100.00
16834;BME280;8533;48.426;10.868;2023-09-19T01:45:02;95856.19;;;15.28;100.00
16834;BME280;8533;48.426;10.868;2023-09-19T01:47:38;95842.06;;;15.43;100.00
16834;BME280;8533;48.426;10.868;2023-09-19T01:50:13;95894.66;;;15.77;100.00
16834;BME280;8533;48.426;10.868;2023-09-19T01:52:49;95691.75;;;14.44;100.00
16834;BME280;8533;48.426;10.868;2023-09-19T01:55:20;95872.97;;;15.61;100.00
16834;BME280;8533;48.426;10.868;2023-09-19T01:58:04;95829.84;;;15.28;100.00
16834;BME280;8533;48.426;10.868;2023-09-19T02:00:34;95749.53;;;14.59;100.00
16834;BME280;8533;48.426;10.868;2023-09-19T02:03:02;95847.06;;;15.44;100.00
16834;BME280;8533;48.426;10.868;2023-09-19T02:05:28;95884.88;;;15.58;100.00
16834;BME280;8533;48.426;10.868;2023-09-19T02:07:53;95916.22;;;15.60;100.00
16834;BME280;8533;48.426;10.868;2023-09-19T02:10:19;95868.94;;;15.45;100.00
16834;BME280;8533;48.426;10.868;2023-09-19T02:12:44;95866.63;;;15.38;100.00
16834;BME280;8533;48.426;10.868;2023-09-19T02:15:10;95864.03;;;15.33;100.00
16834;BME280;8533;48.426;10.868;2023-09-19T02:17:35;95918.03;;;15.64;100.00
16834;BME280;8533;48.426;10.868;2023-09-19T02:20:01;95827.66;;;15.11;100.00
16834;BME280;8533;48.426;10.868;2023-09-19T02:22:28;95774.66;;;14.70;100.00
16834;BME280;8533;48.426;10.868;2023-09-19T02:24:54;95873.78;;;15.33;100.00
16834;BME280;8533;48.426;10.868;2023-09-19T02:27:23;95858.50;;;15.11;100.00
16834;BME280;8533;48.426;10.868;2023-09-19T02:29:48;95689.41;;;14.13;100.00
16834;BME280;8533;48.426;10.868;2023-09-19T02:32:14;95800.94;;;14.75;100.00
16834;BME280;8533;48.426;10.868;2023-09-19T02:34:39;95809.50;;;14.86;100.00
16834;BME280;8533;48.426;10.868;2023-09-19T02:37:05;95759.81;;;14.56;100.00
16834;BME280;8533;48.426;10.868;2023-09-19T02:39:32;95831.19;;;15.02;100.00
16834;BME280;8533;48.426;10.868;2023-09-19T02:41:57;95859.06;;;15.08;100.00
16834;BME280;8533;48.426;10.868;2023-09-19T02:44:22;95918.72;;;15.46;100.00
16834;BME280;8533;48.426;10.868;2023-09-19T02:46:49;95818.19;;;14.86;100.00
16834;BME280;8533;48.426;10.868;2023-09-19T02:49:14;95913.00;;;15.39;100.00
16834;BME280;8533;48.426;10.868;2023-09-19T02:51:39;95926.56;;;15.56;100.00
16834;BME280;8533;48.426;10.868;2023-09-19T02:54:05;95841.38;;;15.08;100.00
16834;BME280;8533;48.426;10.868;2023-09-19T02:56:30;95929.91;;;15.62;100.00
16834;BME280;8533;48.426;10.868;2023-09-19T02:58:57;95906.97;;;15.39;100.00
16834;BME280;8533;48.426;10.868;2023-09-19T03:01:22;95883.06;;;15.30;100.00
16834;BME280;8533;48.426;10.868;2023-09-19T03:03:48;95892.53;;;15.31;100.00
16834;BME280;8533;48.426;10.868;2023-09-19T03:06:14;95763.28;;;14.51;100.00
16834;BME280;8533;48.426;10.868;2023-09-19T03:08:40;95892.81;;;15.30;100.00
16834;BME280;8533;48.426;10.868;2023-09-19T03:11:07;95913.31;;;15.33;100.00
16834;BME280;8533;48.426;10.868;2023-09-19T03:13:37;95910.06;;;15.41;100.00
16834;BME280;8533;48.426;10.868;2023-09-19T03:16:03;95829.00;;;14.85;100.00
16834;BME280;8533;48.426;10.868;2023-09-19T03:18:31;95878.44;;;15.17;100.00
16834;BME280;8533;48.426;10.868;2023-09-19T03:20:57;95905.75;;;15.26;100.00
16834;BME280;8533;48.426;10.868;2023-09-19T03:23:25;95930.50;;;15.30;100.00
16834;BME280;8533;48.426;10.868;2023-09-19T03:25:51;95912.59;;;15.27;100.00
16834;BME280;8533;48.426;10.868;2023-09-19T03:28:17;95824.75;;;14.65;100.00
16834;BME280;8533;48.426;10.868;2023-09-19T03:30:43;95909.69;;;15.28;100.00
16834;BME280;8533;48.426;10.868;2023-09-19T03:33:08;95937.47;;;15.45;100.00
16834;BME280;8533;48.426;10.868;2023-09-19T03:35:37;95837.50;;;14.77;100.00
16834;BME280;8533;48.426;10.868;2023-09-19T03:38:03;95853.72;;;14.89;100.00
16834;BME280;8533;48.426;10.868;2023-09-19T03:40:29;95922.69;;;15.20;100.00
16834;BME280;8533;48.426;10.868;2023-09-19T03:42:54;95884.91;;;15.06;100.00
16834;BME280;8533;48.426;10.868;2023-09-19T03:45:20;95942.88;;;15.58;100.00
16834;BME280;8533;48.426;10.868;2023-09-19T03:47:45;95833.47;;;14.84;100.00
16834;BME280;8533;48.426;10.868;2023-09-19T03:50:13;95875.59;;;15.13;100.00
16834;BME280;8533;48.426;10.868;2023-09-19T03:52:43;95930.25;;;15.55;100.00
16834;BME280;8533;48.426;10.868;2023-09-19T03:55:08;95886.94;;;15.38;100.00
16834;BME280;8533;48.426;10.868;2023-09-19T03:57:35;95886.06;;;15.42;100.00
16834;BME280;8533;48.426;10.868;2023-09-19T04:00:01;95951.06;;;15.81;100.00
16834;BME280;8533;48.426;10.868;2023-09-19T04:02:26;95927.00;;;15.63;100.00
16834;BME280;8533;48.426;10.868;2023-09-19T04:04:57;95806.97;;;14.76;100.00
16834;BME280;8533;48.426;10.868;2023-09-19T04:07:23;95921.50;;;15.60;100.00
16834;BME280;8533;48.426;10.868;2023-09-19T04:09:48;95933.34;;;15.62;100.00
16834;BME280;8533;48.426;10.868;2023-09-19T04:12:14;95951.78;;;15.86;100.00
16834;BME280;8533;48.426;10.868;2023-09-19T04:14:42;95935.34;;;15.71;100.00
16834;BME280;8533;48.426;10.868;2023-09-19T04:17:07;95868.59;;;15.27;100.00
16834;BME280;8533;48.426;10.868;2023-09-19T04:19:33;95869.88;;;15.30;100.00
16834;BME280;8533;48.426;10.868;2023-09-19T04:21:58;95866.31;;;15.21;100.00
16834;BME280;8533;48.426;10.868;2023-09-19T04:24:24;95822.22;;;14.79;100.00
16834;BME280;8533;48.426;10.868;2023-09-19T04:26:49;95939.44;;;15.58;100.00
16834;BME280;8533;48.426;10.868;2023-09-19T04:29:14;95919.25;;;15.48;100.00
16834;BME280;8533;48.426;10.868;2023-09-19T04:31:40;95869.03;;;15.11;100.00
16834;BME280;8533;48.426;10.868;2023-09-19T04:34:08;96004.31;;;15.83;100.00
16834;BME280;8533;48.426;10.868;2023-09-19T04:36:35;95971.25;;;15.67;100.00
16834;BME280;8533;48.426;10.868;2023-09-19T04:39:02;95987.69;;;15.82;100.00
16834;BME280;8533;48.426;10.868;2023-09-19T04:41:30;95994.00;;;15.86;100.00
16834;BME280;8533;48.426;10.868;2023-09-19T04:43:55;95962.00;;;15.69;100.00
16834;BME280;8533;48.426;10.868;2023-09-19T04:46:20;95919.69;;;15.32;100.00
16834;BME280;8533;48.426;10.868;2023-09-19T04:48:46;95831.41;;;14.81;100.00
16834;BME280;8533;48.426;10.868;2023-09-19T04:51:11;95895.34;;;15.16;100.00
16834;BME280;8533;48.426;10.868;2023-09-19T04:53:36;95850.31;;;14.88;100.00
16834;BME280;8533;48.426;10.868;2023-09-19T04:56:02;95889.66;;;15.04;100.00
16834;BME280;8533;48.426;10.868;2023-09-19T04:58:29;96006.50;;;15.76;100.00
16834;BME280;8533;48.426;10.868;2023-09-19T05:00:55;95959.59;;;15.44;100.00
16834;BME280;8533;48.426;10.868;2023-09-19T05:03:21;96004.44;;;15.73;100.00
16834;BME280;8533;48.426;10.868;2023-09-19T05:05:47;96070.41;;;15.68;100.00
16834;BME280;8533;48.426;10.868;2023-09-19T05:08:13;95905.00;;;14.97;100.00
16834;BME280;8533;48.426;10.868;2023-09-19T05:10:39;96021.41;;;15.61;100.00
16834;BME280;8533;48.426;10.868;2023-09-19T05:13:05;96015.63;;;15.59;100.00
16834;BME280;8533;48.426;10.868;2023-09-19T05:15:32;96015.41;;;15.56;100.00
16834;BME280;8533;48.426;10.868;2023-09-19T05:17:57;95993.16;;;15.38;100.00
16834;BME280;8533;48.426;10.868;2023-09-19T05:20:23;95830.31;;;14.25;100.00
16834;BME280;8533;48.426;10.868;2023-09-19T05:23:04;96028.81;;;15.59;100.00
16834;BME280;8533;48.426;10.868;2023-09-19T05:25:33;95892.16;;;14.61;100.00
16834;BME280;8533;48.426;10.868;2023-09-19T05:28:02;96052.22;;;15.66;100.00
16834;BME280;8533;48.426;10.868;2023-09-19T05:30:28;95922.38;;;14.98;100.00
16834;BME280;8533;48.426;10.868;2023-09-19T05:32:54;95967.44;;;15.25;100.00
16834;BME280;8533;48.426;10.868;2023-09-19T05:35:20;95962.94;;;15.25;100.00
16834;BME280;8533;48.426;10.868;2023-09-19T05:37:47;96012.47;;;15.57;100.00
16834;BME280;8533;48.426;10.868;2023-09-19T05:40:16;95967.63;;;15.34;100.00
16834;BME280;8533;48.426;10.868;2023-09-19T05:42:41;96038.59;;;15.83;100.00
16834;BME280;8533;48.426;10.868;2023-09-19T05:45:09;95904.47;;;15.00;100.00
16834;BME280;8533;48.426;10.868;2023-09-19T05:47:40;95942.19;;;15.19;100.00
16834;BME280;8533;48.426;10.868;2023-09-19T05:50:11;96011.25;;;15.74;100.00
16834;BME280;8533;48.426;10.868;2023-09-19T05:52:36;95973.22;;;15.27;100.00
16834;BME280;8533;48.426;10.868;2023-09-19T05:55:04;95708.13;;;13.39;100.00
16834;BME280;8533;48.426;10.868;2023-09-19T05:57:30;96015.97;;;15.77;100.00
16834;BME280;8533;48.426;10.868;2023-09-19T05:59:55;95864.13;;;14.75;100.00
16834;BME280;8533;48.426;10.868;2023-09-19T06:02:21;95971.13;;;15.53;100.00
16834;BME280;8533;48.426;10.868;2023-09-19T06:04:46;95943.59;;;15.40;100.00
16834;BME280;8533;48.426;10.868;2023-09-19T06:07:11;96002.19;;;15.85;100.00
16834;BME280;8533;48.426;10.868;2023-09-19T06:09:37;96014.13;;;16.01;100.00
16834;BME280;8533;48.426;10.868;2023-09-19T06:12:02;96053.78;;;16.38;100.00
16834;BME280;8533;48.426;10.868;2023-09-19T06:14:29;96012.00;;;16.03;100.00
16834;BME280;8533;48.426;10.868;2023-09-19T06:16:55;96066.69;;;16.40;100.00
16834;BME280;8533;48.426;10.868;2023-09-19T06:19:21;96006.31;;;15.91;100.00
16834;BME280;8533;48.426;10.868;2023-09-19T06:21:48;96061.84;;;16.28;100.00
16834;BME280;8533;48.426;10.868;2023-09-19T06:24:13;96044.94;;;16.06;100.00
16834;BME280;8533;48.426;10.868;2023-09-19T06:26:39;96045.50;;;16.02;100.00
16834;BME280;8533;48.426;10.868;2023-09-19T06:29:04;96059.88;;;16.15;100.00
16834;BME280;8533;48.426;10.868;2023-09-19T06:31:33;95968.47;;;15.53;100.00
16834;BME280;8533;48.426;10.868;2023-09-19T06:33:58;96069.75;;;16.28;100.00
16834;BME280;8533;48.426;10.868;2023-09-19T06:36:23;95976.94;;;15.79;100.00
16834;BME280;8533;48.426;10.868;2023-09-19T06:38:49;95925.63;;;15.42;100.00
16834;BME280;8533;48.426;10.868;2023-09-19T06:41:17;96055.88;;;16.18;100.00
16834;BME280;8533;48.426;10.868;2023-09-19T06:43:42;96021.75;;;16.02;100.00
16834;BME280;8533;48.426;10.868;2023-09-19T06:46:07;96059.19;;;16.28;100.00
16834;BME280;8533;48.426;10.868;2023-09-19T06:48:33;95973.50;;;15.78;100.00
16834;BME280;8533;48.426;10.868;2023-09-19T06:50:58;95925.97;;;15.59;100.00
16834;BME280;8533;48.426;10.868;2023-09-19T06:53:30;95909.75;;;15.47;100.00
16834;BME280;8533;48.426;10.868;2023-09-19T06:55:57;96096.84;;;16.58;100.00
16834;BME280;8533;48.426;10.868;2023-09-19T06:58:22;96039.47;;;16.45;100.00
16834;BME280;8533;48.426;10.868;2023-09-19T07:00:47;95886.16;;;15.37;100.00
16834;BME280;8533;48.426;10.868;2023-09-19T07:03:15;95994.41;;;16.17;100.00
16834;BME280;8533;48.426;10.868;2023-09-19T07:05:43;95945.72;;;15.86;100.00
16834;BME280;8533;48.426;10.868;2023-09-19T07:08:10;96105.53;;;16.82;100.00
16834;BME280;8533;48.426;10.868;2023-09-19T07:10:39;96069.44;;;16.54;100.00
16834;BME280;8533;48.426;10.868;2023-09-19T07:13:14;96114.09;;;16.74;100.00
16834;BME280;8533;48.426;10.868;2023-09-19T07:15:42;96110.47;;;16.70;100.00
16834;BME280;8533;48.426;10.868;2023-09-19T07:18:14;96072.13;;;16.49;100.00
16834;BME280;8533;48.426;10.868;2023-09-19T07:20:41;96119.91;;;16.76;100.00
16834;BME280;8533;48.426;10.868;2023-09-19T07:23:21;96112.69;;;17.00;100.00
16834;BME280;8533;48.426;10.868;2023-09-19T07:25:51;96105.09;;;17.31;100.00
16834;BME280;8533;48.426;10.868;2023-09-19T07:28:16;95997.44;;;16.67;100.00
16834;BME280;8533;48.426;10.868;2023-09-19T07:30:41;95936.63;;;16.34;100.00
16834;BME280;8533;48.426;10.868;2023-09-19T07:33:07;95917.84;;;16.55;100.00
16834;BME280;8533;48.426;10.868;2023-09-19T07:35:33;95957.50;;;16.87;100.00
16834;BME280;8533;48.426;10.868;2023-09-19T07:37:59;96115.56;;;17.87;100.00
16834;BME280;8533;48.426;10.868;2023-09-19T07:40:27;96113.94;;;17.91;100.00
16834;BME280;8533;48.426;10.868;2023-09-19T07:42:55;96001.31;;;17.07;100.00
16834;BME280;8533;48.426;10.868;2023-09-19T07:45:20;95949.81;;;17.04;100.00
16834;BME280;8533;48.426;10.868;2023-09-19T07:50:12;96160.94;;;18.27;100.00
16834;BME280;8533;48.426;10.868;2023-09-19T07:52:38;96018.22;;;17.84;100.00
16834;BME280;8533;48.426;10.868;2023-09-19T07:55:05;96069.03;;;18.27;100.00
16834;BME280;8533;48.426;10.868;2023-09-19T07:57:34;96084.69;;;18.51;100.00
16834;BME280;8533;48.426;10.868;2023-09-19T07:59:59;96017.75;;;18.10;100.00
16834;BME280;8533;48.426;10.868;2023-09-19T08:02:25;96009.97;;;18.27;100.00
16834;BME280;8533;48.426;10.868;2023-09-19T08:04:50;96055.09;;;18.63;100.00
16834;BME280;8533;48.426;10.868;2023-09-19T08:07:17;95925.63;;;17.98;100.00
16834;BME280;8533;48.426;10.868;2023-09-19T08:09:43;95970.06;;;18.37;100.00
16834;BME280;8533;48.426;10.868;2023-09-19T08:12:11;96079.94;;;19.25;100.00
16834;BME280;8533;48.426;10.868;2023-09-19T08:14:36;95949.59;;;18.51;100.00
16834;BME280;8533;48.426;10.868;2023-09-19T08:17:06;96140.44;;;19.81;100.00
16834;BME280;8533;48.426;10.868;2023-09-19T08:19:33;96132.91;;;19.75;100.00
16834;BME280;8533;48.426;10.868;2023-09-19T08:21:58;96064.50;;;19.27;100.00
16834;BME280;8533;48.426;10.868;2023-09-19T08:24:27;96105.00;;;19.41;100.00
16834;BME280;8533;48.426;10.868;2023-09-19T08:26:54;96017.88;;;18.68;100.00
16834;BME280;8533;48.426;10.868;2023-09-19T08:29:21;96118.78;;;19.43;100.00
16834;BME280;8533;48.426;10.868;2023-09-19T08:31:46;96103.84;;;19.48;100.00
16834;BME280;8533;48.426;10.868;2023-09-19T08:34:14;96103.56;;;19.35;100.00
16834;BME280;8533;48.426;10.868;2023-09-19T08:36:40;96117.47;;;19.55;100.00
16834;BME280;8533;48.426;10.868;2023-09-19T08:39:06;96107.97;;;19.85;100.00
16834;BME280;8533;48.426;10.868;2023-09-19T08:41:33;95986.97;;;19.30;100.00
16834;BME280;8533;48.426;10.868;2023-09-19T08:43:59;96144.47;;;20.80;100.00
16834;BME280;8533;48.426;10.868;2023-09-19T08:46:30;95994.09;;;20.31;94.06
16834;BME280;8533;48.426;10.868;2023-09-19T08:49:04;96134.56;;;21.38;95.79
16834;BME280;8533;48.426;10.868;2023-09-19T08:51:41;95964.13;;;20.39;92.16
16834;BME280;8533;48.426;10.868;2023-09-19T08:54:23;96125.16;;;21.23;90.75
16834;BME280;8533;48.426;10.868;2023-09-19T08:56:53;96147.06;;;21.28;93.27
16834;BME280;8533;48.426;10.868;2023-09-19T08:59:21;96048.13;;;20.83;92.84
16834;BME280;8533;48.426;10.868;2023-09-19T09:01:50;96065.03;;;21.13;90.61
16834;BME280;8533;48.426;10.868;2023-09-19T09:04:19;96105.75;;;21.48;89.21
16834;BME280;8533;48.426;10.868;2023-09-19T09:06:45;96057.84;;;21.31;86.96
16834;BME280;8533;48.426;10.868;2023-09-19T09:09:14;96149.72;;;21.63;91.54
16834;BME280;8533;48.426;10.868;2023-09-19T09:11:40;96107.28;;;21.49;92.39
16834;BME280;8533;48.426;10.868;2023-09-19T09:14:06;96155.53;;;21.56;92.02
16834;BME280;8533;48.426;10.868;2023-09-19T09:16:32;96146.44;;;21.23;87.52
16834;BME280;8533;48.426;10.868;2023-09-19T09:18:58;96084.13;;;20.33;92.39
16834;BME280;8533;48.426;10.868;2023-09-19T09:21:26;96178.78;;;20.51;99.59
16834;BME280;8533;48.426;10.868;2023-09-19T09:23:52;96145.84;;;20.30;100.00
16834;BME280;8533;48.426;10.868;2023-09-19T09:26:41;96110.03;;;20.18;100.00
16834;BME280;8533;48.426;10.868;2023-09-19T09:29:08;96123.47;;;20.70;100.00
16834;BME280;8533;48.426;10.868;2023-09-19T09:31:33;96154.56;;;21.26;92.83
16834;BME280;8533;48.426;10.868;2023-09-19T09:33:58;96168.06;;;21.64;89.91
16834;BME280;8533;48.426;10.868;2023-09-19T09:36:34;95994.16;;;20.57;85.54
16834;BME280;8533;48.426;10.868;2023-09-19T09:39:01;96128.91;;;21.39;85.61
16834;BME280;8533;48.426;10.868;2023-09-19T09:41:41;96144.00;;;20.78;89.75
16834;BME280;8533;48.426;10.868;2023-09-19T09:44:14;96175.41;;;20.76;86.52
16834;BME280;8533;48.426;10.868;2023-09-19T09:46:45;96176.34;;;20.72;88.75
16834;BME280;8533;48.426;10.868;2023-09-19T09:49:40;96053.03;;;19.63;90.06
16834;BME280;8533;48.426;10.868;2023-09-19T09:52:06;96152.03;;;20.16;90.07
16834;BME280;8533;48.426;10.868;2023-09-19T09:54:34;96123.59;;;19.86;91.00
16834;BME280;8533;48.426;10.868;2023-09-19T09:57:03;96180.78;;;20.45;94.03
16834;BME280;8533;48.426;10.868;2023-09-19T09:59:51;96184.78;;;20.65;91.07
16834;BME280;8533;48.426;10.868;2023-09-19T10:04:58;96166.53;;;20.81;88.15
16834;BME280;8533;48.426;10.868;2023-09-19T10:07:31;96187.81;;;20.89;88.92
16834;BME280;8533;48.426;10.868;2023-09-19T10:10:08;96172.78;;;20.85;86.03
16834;BME280;8533;48.426;10.868;2023-09-19T10:12:45;96172.53;;;21.04;85.89
16834;BME280;8533;48.426;10.868;2023-09-19T10:15:12;96134.06;;;20.53;100.00
16834;BME280;8533;48.426;10.868;2023-09-19T10:17:43;96150.31;;;20.43;100.00
16834;BME280;8533;48.426;10.868;2023-09-19T10:20:17;96139.44;;;20.31;100.00
16834;BME280;8533;48.426;10.868;2023-09-19T10:23:01;96135.41;;;20.02;100.00
16834;BME280;8533;48.426;10.868;2023-09-19T10:25:29;96174.34;;;20.38;100.00
16834;BME280;8533;48.426;10.868;2023-09-19T10:27:57;96122.34;;;20.14;100.00
16834;BME280;8533;48.426;10.868;2023-09-19T10:30:24;96140.63;;;20.47;100.00
16834;BME280;8533;48.426;10.868;2023-09-19T10:32:58;96184.66;;;20.79;100.00
16834;BME280;8533;48.426;10.868;2023-09-19T10:35:25;96170.59;;;20.39;100.00
16834;BME280;8533;48.426;10.868;2023-09-19T10:37:51;96188.47;;;20.25;100.00
16834;BME280;8533;48.426;10.868;2023-09-19T10:40:20;96132.66;;;19.63;100.00
16834;BME280;8533;48.426;10.868;2023-09-19T10:42:48;96125.66;;;19.09;100.00
16834;BME280;8533;48.426;10.868;2023-09-19T10:45:16;96147.06;;;19.12;100.00
16834;BME280;8533;48.426;10.868;2023-09-19T10:47:45;96154.06;;;18.94;100.00
16834;BME280;8533;48.426;10.868;2023-09-19T10:50:20;96048.06;;;18.31;100.00
16834;BME280;8533;48.426;10.868;2023-09-19T10:52:47;96195.25;;;19.28;100.00
16834;BME280;8533;48.426;10.868;2023-09-19T10:55:18;96047.31;;;18.80;100.00
16834;BME280;8533;48.426;10.868;2023-09-19T10:57:46;96095.84;;;19.25;100.00
16834;BME280;8533;48.426;10.868;2023-09-19T11:00:12;96173.78;;;19.96;100.00
16834;BME280;8533;48.426;10.868;2023-09-19T11:05:40;96147.13;;;19.57;100.00
16834;BME280;8533;48.426;10.868;2023-09-19T11:08:09;96149.03;;;19.42;100.00
16834;BME280;8533;48.426;10.868;2023-09-19T11:10:47;96173.59;;;19.48;100.00
16834;BME280;8533;48.426;10.868;2023-09-19T11:13:26;96197.97;;;19.50;100.00
16834;BME280;8533;48.426;10.868;2023-09-19T11:24:28;96201.97;;;18.98;100.00
16834;BME280;8533;48.426;10.868;2023-09-19T11:27:12;96144.06;;;18.50;100.00
16834;BME280;8533;48.426;10.868;2023-09-19T11:29:39;96192.28;;;18.66;100.00
16834;BME280;8533;48.426;10.868;2023-09-19T11:32:05;96161.94;;;18.31;100.00
16834;BME280;8533;48.426;10.868;2023-09-19T11:34:37;96212.28;;;18.58;100.00
16834;BME280;8533;48.426;10.868;2023-09-19T11:40:07;96185.50;;;18.60;100.00
16834;BME280;8533;48.426;10.868;2023-09-19T11:42:53;96170.38;;;18.74;100.00
16834;BME280;8533;48.426;10.868;2023-09-19T11:48:12;96206.63;;;19.42;100.00
16834;BME280;8533;48.426;10.868;2023-09-19T11:50:39;96181.97;;;19.77;100.00
16834;BME280;8533;48.426;10.868;2023-09-19T11:53:10;95977.09;;;19.22;100.00
16834;BME280;8533;48.426;10.868;2023-09-19T11:55:37;96107.84;;;20.77;92.21
16834;BME280;8533;48.426;10.868;2023-09-19T11:58:03;96170.56;;;21.61;85.28
16834;BME280;8533;48.426;10.868;2023-09-19T12:00:30;96178.06;;;22.02;79.33
16834;BME280;8533;48.426;10.868;2023-09-19T12:02:58;95937.56;;;20.74;79.02
16834;BME280;8533;48.426;10.868;2023-09-19T12:05:29;96048.28;;;22.02;78.92
16834;BME280;8533;48.426;10.868;2023-09-19T12:07:54;96182.56;;;23.24;72.98
16834;BME280;8533;48.426;10.868;2023-09-19T12:10:20;96071.03;;;22.88;71.40
16834;BME280;8533;48.426;10.868;2023-09-19T12:12:48;96074.53;;;23.21;71.00
16834;BME280;8533;48.426;10.868;2023-09-19T12:15:14;96175.81;;;22.97;71.54
16834;BME280;8533;48.426;10.868;2023-09-19T12:17:41;96154.09;;;23.28;71.03
16834;BME280;8533;48.426;10.868;2023-09-19T12:20:08;96168.84;;;23.34;68.94
16834;BME280;8533;48.426;10.868;2023-09-19T12:22:41;96143.59;;;23.85;67.16
16834;BME280;8533;48.426;10.868;2023-09-19T12:25:08;96102.72;;;23.85;65.09
16834;BME280;8533;48.426;10.868;2023-09-19T12:27:49;96157.78;;;24.31;65.41
16834;BME280;8533;48.426;10.868;2023-09-19T12:30:18;96158.22;;;23.46;68.09
16834;BME280;8533;48.426;10.868;2023-09-19T12:32:46;96148.50;;;23.21;72.47
16834;BME280;8533;48.426;10.868;2023-09-19T12:35:32;96153.84;;;23.83;67.50
16834;BME280;8533;48.426;10.868;2023-09-19T12:38:01;96158.44;;;24.28;66.76
16834;BME280;8533;48.426;10.868;2023-09-19T12:40:28;96141.50;;;24.36;59.79
16834;BME280;8533;48.426;10.868;2023-09-19T12:42:59;96136.50;;;24.47;58.79
16834;BME280;8533;48.426;10.868;2023-09-19T12:45:25;96090.69;;;24.24;58.16
16834;BME280;8533;48.426;10.868;2023-09-19T12:53:42;96106.16;;;24.79;56.01
16834;BME280;8533;48.426;10.868;2023-09-19T12:56:15;96134.50;;;25.44;55.96
16834;BME280;8533;48.426;10.868;2023-09-19T12:58:55;96136.16;;;25.61;52.81
16834;BME280;8533;48.426;10.868;2023-09-19T13:01:21;96065.22;;;25.03;52.29
16834;BME280;8533;48.426;10.868;2023-09-19T13:04:18;96133.66;;;25.68;52.18
16834;BME280;8533;48.426;10.868;2023-09-19T13:06:48;96105.84;;;25.33;52.13
16834;BME280;8533;48.426;10.868;2023-09-19T13:09:15;95922.03;;;24.05;51.54
16834;BME280;8533;48.426;10.868;2023-09-19T13:11:41;96105.38;;;25.03;51.81
16834;BME280;8533;48.426;10.868;2023-09-19T13:14:26;95925.16;;;23.70;53.24
16834;BME280;8533;48.426;10.868;2023-09-19T13:22:42;96113.72;;;24.89;54.16
16834;BME280;8533;48.426;10.868;2023-09-19T13:25:09;96010.50;;;24.24;54.72
16834;BME280;8533;48.426;10.868;2023-09-19T13:27:45;96066.28;;;24.50;54.83
16834;BME280;8533;48.426;10.868;2023-09-19T13:30:11;96018.69;;;24.43;57.36
16834;BME280;8533;48.426;10.868;2023-09-19T13:32:37;96030.72;;;24.49;54.12
16834;BME280;8533;48.426;10.868;2023-09-19T13:35:04;95907.16;;;23.67;53.58
16834;BME280;8533;48.426;10.868;2023-09-19T13:37:30;96061.34;;;24.76;53.73
16834;BME280;8533;48.426;10.868;2023-09-19T13:39:55;96008.13;;;24.34;55.02
16834;BME280;8533;48.426;10.868;2023-09-19T13:42:24;95939.53;;;23.90;56.27
16834;BME280;8533;48.426;10.868;2023-09-19T13:44:50;96063.22;;;24.88;53.66
16834;BME280;8533;48.426;10.868;2023-09-19T13:47:15;96029.94;;;24.61;54.21
16834;BME280;8533;48.426;10.868;2023-09-19T13:49:41;95982.38;;;23.93;54.70